Time;durP1;ratioP1;P1;durP2;ratioP2;P2;SDS_P1;SDS_P2;PMS_P1;PMS_P2;Temp;Humidity;BMP_temperature;BMP_pressure;BME280_temperature;BME280_humidity;BME280_pressure;Samples;Min_cycle;Max_cycle;Signal;HPM_P1;HPM_P2
2021/10/15 00:00:13;;;;;;;2.22;1.65;;;;;;;;;;4991068;28;20074;-40
2021/10/15 00:02:39;;;;;;;4.97;2.35;;;;;;;;;;4993538;28;20061;-39
2021/10/15 00:05:05;;;;;;;4.40;2.28;;;;;;;;;;4990421;28;20034;-42
2021/10/15 00:07:30;;;;;;;4.95;2.95;;;;;;;;;;4988934;28;20029;-39
2021/10/15 00:09:55;;;;;;;2.50;2.05;;;;;;;;;;4987233;28;20500;-40
2021/10/15 00:12:21;;;;;;;4.00;1.90;;;;;;;;;;4994667;28;20033;-41
2021/10/15 00:14:46;;;;;;;4.93;2.90;;;;;;;;;;4989082;28;20183;-41
2021/10/15 00:17:11;;;;;;;6.30;2.38;;;;;;;;;;4989686;28;20475;-42
2021/10/15 00:19:36;;;;;;;5.80;2.72;;;;;;;;;;4987799;28;20019;-43
2021/10/15 00:22:02;;;;;;;1.98;1.67;;;;;;;;;;4990065;28;20033;-42
2021/10/15 00:24:27;;;;;;;2.83;1.70;;;;;;;;;;4989161;28;20115;-43
2021/10/15 00:26:52;;;;;;;2.50;1.55;;;;;;;;;;4986784;28;20034;-47
2021/10/15 00:29:18;;;;;;;6.95;2.33;;;;;;;;;;4991335;28;20018;-47
2021/10/15 00:31:43;;;;;;;5.10;2.17;;;;;;;;;;4987637;28;20124;-41
2021/10/15 00:34:08;;;;;;;3.75;2.45;;;;;;;;;;4988204;28;20018;-43
2021/10/15 00:36:34;;;;;;;5.75;1.48;;;;;;;;;;4987459;28;20475;-42
2021/10/15 00:38:59;;;;;;;6.30;2.22;;;;;;;;;;4992766;28;20029;-40
2021/10/15 00:41:24;;;;;;;14.60;2.38;;;;;;;;;;4984680;28;20403;-42
2021/10/15 00:44:04;;;;;;;4.90;2.50;;;;;;;;;;4985902;28;20121;-40
2021/10/15 00:46:30;;;;;;;3.28;1.85;;;;;;;;;;4991160;28;20046;-39
2021/10/15 00:48:55;;;;;;;8.43;2.33;;;;;;;;;;4998650;28;20021;-40
2021/10/15 00:51:21;;;;;;;7.10;3.13;;;;;;;;;;4990046;28;20266;-42
2021/10/15 00:53:47;;;;;;;5.35;2.45;;;;;;;;;;4987546;28;20050;-42
2021/10/15 00:56:13;;;;;;;6.80;2.42;;;;;;;;;;4984704;28;20015;-43
2021/10/15 00:58:38;;;;;;;2.55;1.70;;;;;;;;;;4987040;28;20011;-44
2021/10/15 01:01:03;;;;;;;3.17;1.92;;;;;;;;;;4992975;28;20106;-41
2021/10/15 01:03:28;;;;;;;3.72;2.33;;;;;;;;;;4990682;28;20022;-44
2021/10/15 01:05:54;;;;;;;8.80;1.80;;;;;;;;;;4987155;28;20023;-40
2021/10/15 01:08:19;;;;;;;2.90;2.03;;;;;;;;;;4987569;28;20017;-43
2021/10/15 01:10:45;;;;;;;3.13;1.67;;;;;;;;;;4987837;28;20105;-45
2021/10/15 01:13:10;;;;;;;5.13;1.85;;;;;;;;;;4992204;28;20390;-40
2021/10/15 01:15:35;;;;;;;2.63;1.55;;;;;;;;;;4986804;28;20027;-43
2021/10/15 01:18:01;;;;;;;3.88;2.25;;;;;;;;;;4991166;28;20041;-39
2021/10/15 01:20:26;;;;;;;4.65;1.83;;;;;;;;;;4985545;28;20026;-40
2021/10/15 01:22:51;;;;;;;1.85;1.20;;;;;;;;;;4990219;28;20033;-46
2021/10/15 01:25:17;;;;;;;3.70;2.13;;;;;;;;;;4985477;28;20416;-40
2021/10/15 01:27:42;;;;;;;3.83;2.05;;;;;;;;;;4990305;28;20034;-44
2021/10/15 01:30:10;;;;;;;3.50;1.95;;;;;;;;;;4985076;28;20018;-40
2021/10/15 01:32:35;;;;;;;6.65;3.92;;;;;;;;;;4989881;28;20033;-42
2021/10/15 01:35:06;;;;;;;4.13;3.00;;;;;;;;;;4989809;28;20030;-46
2021/10/15 01:37:31;;;;;;;3.63;2.15;;;;;;;;;;4990270;28;20029;-44
2021/10/15 01:39:56;;;;;;;6.47;2.17;;;;;;;;;;4985551;28;20018;-45
2021/10/15 01:45:06;;;;;;;3.83;1.75;;;;;;;;;;4985412;28;20067;-41
2021/10/15 01:47:31;;;;;;;3.60;2.03;;;;;;;;;;4991250;28;20037;-45
2021/10/15 01:49:56;;;;;;;7.70;2.55;;;;;;;;;;4984424;28;20132;-40
2021/10/15 01:52:21;;;;;;;6.35;2.05;;;;;;;;;;4988571;28;20113;-44
2021/10/15 01:54:47;;;;;;;3.88;1.92;;;;;;;;;;4997283;28;20022;-42
2021/10/15 01:57:12;;;;;;;2.63;1.95;;;;;;;;;;4995482;28;20018;-41
2021/10/15 01:59:37;;;;;;;2.35;1.70;;;;;;;;;;4987092;28;20061;-39
2021/10/15 02:02:03;;;;;;;2.80;1.85;;;;;;;;;;4986496;28;20019;-41
2021/10/15 02:04:28;;;;;;;6.25;2.47;;;;;;;;;;4985385;28;20032;-45
2021/10/15 02:06:53;;;;;;;4.53;1.48;;;;;;;;;;4990505;28;20033;-43
2021/10/15 02:09:19;;;;;;;6.70;1.67;;;;;;;;;;4991901;28;20027;-45
2021/10/15 02:11:44;;;;;;;3.40;2.05;;;;;;;;;;4991220;28;20030;-44
2021/10/15 02:14:09;;;;;;;3.88;1.55;;;;;;;;;;4984873;28;20026;-45
2021/10/15 02:16:35;;;;;;;10.45;1.95;;;;;;;;;;4986878;28;20517;-40
2021/10/15 02:19:00;;;;;;;2.67;1.60;;;;;;;;;;4990694;28;20033;-45
2021/10/15 02:21:25;;;;;;;3.72;1.88;;;;;;;;;;4989416;28;20075;-39
2021/10/15 02:23:50;;;;;;;2.65;1.65;;;;;;;;;;4989626;28;20036;-40
2021/10/15 02:26:20;;;;;;;7.50;1.90;;;;;;;;;;4988764;28;20022;-38
2021/10/15 02:28:45;;;;;;;2.80;1.65;;;;;;;;;;4986700;28;20060;-39
2021/10/15 02:31:11;;;;;;;3.30;2.35;;;;;;;;;;4990080;28;20030;-39
2021/10/15 02:33:36;;;;;;;3.80;2.00;;;;;;;;;;4986123;28;20108;-39
2021/10/15 02:36:01;;;;;;;8.32;1.75;;;;;;;;;;4985593;28;20071;-39
2021/10/15 02:38:26;;;;;;;5.68;1.55;;;;;;;;;;4990222;28;20390;-38
2021/10/15 02:40:52;;;;;;;7.25;2.80;;;;;;;;;;4990701;28;20031;-40
2021/10/15 02:43:17;;;;;;;5.18;1.65;;;;;;;;;;4990095;28;20055;-39
2021/10/15 02:45:42;;;;;;;1.83;1.50;;;;;;;;;;4987637;28;20042;-39
2021/10/15 02:48:09;;;;;;;2.53;1.63;;;;;;;;;;4990699;28;20049;-39
2021/10/15 02:50:34;;;;;;;1.85;1.25;;;;;;;;;;4985949;28;20042;-39
2021/10/15 02:52:59;;;;;;;7.22;2.17;;;;;;;;;;4988318;28;20524;-38
2021/10/15 02:55:25;;;;;;;4.90;1.70;;;;;;;;;;4986693;28;20540;-39
2021/10/15 02:57:50;;;;;;;3.55;2.15;;;;;;;;;;4987458;28;20623;-40
2021/10/15 03:00:15;;;;;;;3.10;1.73;;;;;;;;;;4987272;28;20015;-40
2021/10/15 03:02:41;;;;;;;3.00;1.48;;;;;;;;;;4985982;28;20525;-41
2021/10/15 03:05:06;;;;;;;7.45;2.47;;;;;;;;;;4987950;28;20087;-40
2021/10/15 03:07:34;;;;;;;3.95;2.65;;;;;;;;;;4990909;28;20551;-39
2021/10/15 03:09:59;;;;;;;5.47;1.88;;;;;;;;;;4989744;28;20022;-39
2021/10/15 03:12:25;;;;;;;3.90;2.83;;;;;;;;;;5000600;28;20080;-39
2021/10/15 03:14:50;;;;;;;3.22;2.13;;;;;;;;;;4989843;28;20540;-41
2021/10/15 03:17:15;;;;;;;3.20;1.80;;;;;;;;;;4991769;28;20110;-40
2021/10/15 03:19:40;;;;;;;2.22;1.42;;;;;;;;;;4991916;28;20033;-39
2021/10/15 03:22:06;;;;;;;3.22;2.10;;;;;;;;;;4990442;28;20028;-40
2021/10/15 03:24:31;;;;;;;7.60;2.08;;;;;;;;;;4991512;28;20068;-39
2021/10/15 03:26:56;;;;;;;3.38;1.65;;;;;;;;;;4997893;28;20057;-41
2021/10/15 03:29:22;;;;;;;3.92;2.17;;;;;;;;;;4994998;28;20033;-41
2021/10/15 03:31:47;;;;;;;6.63;3.15;;;;;;;;;;4990257;28;20029;-43
2021/10/15 03:34:12;;;;;;;2.85;1.60;;;;;;;;;;4988229;28;20037;-40
2021/10/15 03:36:38;;;;;;;3.83;1.48;;;;;;;;;;4995701;28;20049;-40
2021/10/15 03:39:03;;;;;;;9.10;2.30;;;;;;;;;;4995599;28;20018;-42
2021/10/15 03:41:28;;;;;;;2.42;2.03;;;;;;;;;;4994322;28;20064;-44
2021/10/15 03:43:53;;;;;;;2.65;1.75;;;;;;;;;;4995351;28;20494;-43
2021/10/15 03:46:19;;;;;;;7.22;2.00;;;;;;;;;;4991729;28;20634;-41
2021/10/15 03:48:44;;;;;;;2.85;1.77;;;;;;;;;;4994635;28;20029;-45
2021/10/15 03:51:09;;;;;;;2.35;1.58;;;;;;;;;;5000997;28;20093;-42
2021/10/15 03:53:35;;;;;;;3.05;2.17;;;;;;;;;;4994603;28;20083;-42
2021/10/15 03:56:00;;;;;;;2.92;1.63;;;;;;;;;;4994508;28;20553;-41
2021/10/15 03:58:25;;;;;;;9.38;1.90;;;;;;;;;;4992503;28;20065;-42
2021/10/15 04:00:50;;;;;;;3.65;1.98;;;;;;;;;;4990132;28;20025;-41
2021/10/15 04:03:16;;;;;;;3.83;2.30;;;;;;;;;;4991220;28;20568;-39
2021/10/15 04:05:41;;;;;;;2.67;1.75;;;;;;;;;;4984175;28;20551;-40
2021/10/15 04:08:06;;;;;;;3.10;1.95;;;;;;;;;;4987787;28;20475;-44
2021/10/15 04:10:32;;;;;;;4.75;2.72;;;;;;;;;;4993629;28;20062;-41
2021/10/15 04:12:57;;;;;;;4.72;2.42;;;;;;;;;;4990954;28;20015;-46
2021/10/15 04:15:22;;;;;;;3.35;1.20;;;;;;;;;;4991397;28;20031;-42
2021/10/15 04:17:48;;;;;;;2.13;1.30;;;;;;;;;;4992077;28;20022;-43
2021/10/15 04:20:13;;;;;;;6.22;2.45;;;;;;;;;;4988481;28;20217;-43
2021/10/15 04:22:38;;;;;;;6.03;1.55;;;;;;;;;;4995099;28;20485;-42
2021/10/15 04:25:04;;;;;;;4.90;2.28;;;;;;;;;;4991065;28;20029;-40
2021/10/15 04:27:29;;;;;;;13.75;3.22;;;;;;;;;;4990134;28;20030;-42
2021/10/15 04:29:54;;;;;;;3.30;1.45;;;;;;;;;;4987090;28;20030;-42
2021/10/15 04:32:21;;;;;;;3.33;1.90;;;;;;;;;;4990987;28;20090;-46
2021/10/15 04:34:46;;;;;;;4.38;2.08;;;;;;;;;;4990708;28;20467;-45
2021/10/15 04:37:11;;;;;;;10.90;2.72;;;;;;;;;;4991724;28;20039;-43
2021/10/15 04:39:36;;;;;;;3.15;2.65;;;;;;;;;;4990480;28;20060;-41
2021/10/15 04:42:02;;;;;;;5.25;2.50;;;;;;;;;;4990461;28;20022;-42
2021/10/15 04:44:27;;;;;;;5.45;2.60;;;;;;;;;;4989098;28;20033;-42
2021/10/15 04:46:52;;;;;;;5.70;3.08;;;;;;;;;;4991419;28;20463;-41
2021/10/15 04:49:18;;;;;;;5.28;3.38;;;;;;;;;;4992450;28;20029;-42
2021/10/15 04:51:43;;;;;;;5.53;3.75;;;;;;;;;;4992319;28;20057;-40
2021/10/15 04:54:09;;;;;;;4.97;2.88;;;;;;;;;;4992431;28;20022;-40
2021/10/15 04:56:34;;;;;;;2.45;2.00;;;;;;;;;;4996129;28;20029;-39
2021/10/15 04:58:59;;;;;;;2.60;1.55;;;;;;;;;;4994665;28;20530;-39
2021/10/15 05:01:25;;;;;;;3.25;2.15;;;;;;;;;;4989136;28;20025;-43
2021/10/15 05:03:50;;;;;;;3.65;1.75;;;;;;;;;;4994982;28;20089;-45
2021/10/15 05:06:15;;;;;;;4.10;2.42;;;;;;;;;;4992319;28;20030;-40
2021/10/15 05:11:29;;;;;;;1.80;1.35;;;;;;;;;;5011626;28;20053;-41
2021/10/15 05:13:55;;;;;;;3.08;1.85;;;;;;;;;;4986555;28;20026;-39
2021/10/15 05:16:20;;;;;;;6.85;1.60;;;;;;;;;;4995115;28;20710;-41
2021/10/15 05:18:46;;;;;;;6.28;1.73;;;;;;;;;;4991331;28;20034;-39
2021/10/15 05:21:11;;;;;;;1.38;0.98;;;;;;;;;;4988834;28;20076;-40
2021/10/15 05:23:36;;;;;;;3.08;1.85;;;;;;;;;;4987983;28;20822;-40
2021/10/15 05:26:01;;;;;;;3.00;2.13;;;;;;;;;;4991327;28;20030;-43
2021/10/15 05:28:27;;;;;;;3.20;1.98;;;;;;;;;;4992653;28;20030;-45
2021/10/15 05:30:54;;;;;;;6.22;1.25;;;;;;;;;;4991177;28;20022;-40
2021/10/15 05:33:19;;;;;;;3.22;2.22;;;;;;;;;;4988836;28;20053;-39
2021/10/15 05:35:45;;;;;;;4.32;2.33;;;;;;;;;;4983910;28;20052;-41
2021/10/15 05:38:10;;;;;;;6.18;2.70;;;;;;;;;;4992060;28;20018;-40
2021/10/15 05:40:35;;;;;;;2.25;1.63;;;;;;;;;;4983865;28;20101;-42
2021/10/15 05:43:00;;;;;;;8.27;2.50;;;;;;;;;;4990565;28;20029;-41
2021/10/15 05:45:26;;;;;;;4.03;2.97;;;;;;;;;;4991246;28;20044;-41
2021/10/15 05:47:51;;;;;;;18.45;2.30;;;;;;;;;;4993103;28;20560;-39
2021/10/15 05:50:17;;;;;;;2.72;1.83;;;;;;;;;;4990523;28;20030;-39
2021/10/15 05:52:48;;;;;;;2.67;1.52;;;;;;;;;;4989189;28;20653;-41
2021/10/15 06:00:26;;;;;;;12.20;11.07;;;;;;;;;;4991448;28;20048;-40
2021/10/15 06:02:52;;;;;;;9.60;7.22;;;;;;;;;;4990659;28;20544;-39
2021/10/15 06:15:51;;;;;;;13.02;3.60;;;;;;;;;;4992162;28;20033;-40
2021/10/15 06:18:19;;;;;;;8.23;2.25;;;;;;;;;;4989097;28;20026;-41
2021/10/15 06:20:44;;;;;;;6.07;3.35;;;;;;;;;;4989451;28;20083;-42
2021/10/15 06:23:10;;;;;;;4.03;2.50;;;;;;;;;;4995166;28;20138;-43
2021/10/15 06:25:35;;;;;;;12.27;2.75;;;;;;;;;;4990478;28;20033;-47
2021/10/15 06:28:02;;;;;;;10.68;4.22;;;;;;;;;;4992105;28;20436;-40
2021/10/15 06:30:28;;;;;;;5.40;2.85;;;;;;;;;;4992181;28;20124;-39
2021/10/15 06:32:53;;;;;;;7.82;2.75;;;;;;;;;;4992797;28;20057;-51
2021/10/15 06:35:19;;;;;;;6.47;3.63;;;;;;;;;;4993893;28;20165;-51
2021/10/15 06:37:44;;;;;;;2.13;1.60;;;;;;;;;;4987781;28;20026;-51
2021/10/15 06:40:10;;;;;;;2.60;1.63;;;;;;;;;;4985108;28;20023;-49
2021/10/15 06:42:35;;;;;;;2.45;1.55;;;;;;;;;;4989627;28;20015;-46
2021/10/15 06:45:00;;;;;;;9.93;2.05;;;;;;;;;;4983751;28;20069;-49
2021/10/15 06:47:28;;;;;;;14.23;10.05;;;;;;;;;;4987997;28;20027;-46
2021/10/15 06:49:53;;;;;;;26.65;13.18;;;;;;;;;;4986110;28;20023;-49
2021/10/15 06:52:19;;;;;;;15.65;9.52;;;;;;;;;;4987934;28;20131;-49
2021/10/15 06:54:44;;;;;;;6.90;4.15;;;;;;;;;;4983188;28;20049;-46
2021/10/15 06:57:09;;;;;;;9.52;5.43;;;;;;;;;;4992291;28;20072;-50
2021/10/15 06:59:35;;;;;;;4.38;3.17;;;;;;;;;;4986779;28;20699;-45
2021/10/15 07:02:00;;;;;;;6.05;2.65;;;;;;;;;;4990940;28;20046;-49
2021/10/15 07:04:25;;;;;;;7.05;2.88;;;;;;;;;;4992199;28;20103;-46
2021/10/15 07:06:50;;;;;;;4.60;2.08;;;;;;;;;;4994919;28;20245;-48
2021/10/15 07:09:16;;;;;;;2.10;1.33;;;;;;;;;;4989150;28;20425;-47
2021/10/15 07:11:41;;;;;;;8.60;2.05;;;;;;;;;;4995464;28;20109;-49
2021/10/15 07:14:06;;;;;;;3.50;2.42;;;;;;;;;;4989157;28;20181;-47
2021/10/15 07:16:32;;;;;;;5.93;4.18;;;;;;;;;;4994329;28;20026;-46
2021/10/15 07:18:57;;;;;;;11.23;4.85;;;;;;;;;;4993415;28;20069;-45
2021/10/15 07:21:22;;;;;;;11.10;4.05;;;;;;;;;;4993899;28;20015;-50
2021/10/15 07:23:47;;;;;;;11.02;2.95;;;;;;;;;;4993374;28;20053;-50
2021/10/15 07:26:13;;;;;;;9.00;3.42;;;;;;;;;;4991089;28;20042;-46
2021/10/15 07:28:38;;;;;;;3.92;2.17;;;;;;;;;;4991942;28;20114;-48
2021/10/15 07:31:03;;;;;;;9.55;5.43;;;;;;;;;;4991671;28;20390;-49
2021/10/15 07:33:29;;;;;;;8.95;6.28;;;;;;;;;;4993041;28;20058;-47
2021/10/15 07:35:54;;;;;;;11.32;4.35;;;;;;;;;;4990210;28;20351;-49
2021/10/15 07:38:20;;;;;;;10.05;5.72;;;;;;;;;;4994739;28;20072;-48
2021/10/15 07:40:45;;;;;;;19.45;8.45;;;;;;;;;;4992797;28;20084;-49
2021/10/15 07:43:11;;;;;;;9.52;3.63;;;;;;;;;;4990032;28;20033;-48
2021/10/15 07:45:36;;;;;;;14.05;3.15;;;;;;;;;;4991623;28;20395;-49
2021/10/15 07:48:01;;;;;;;10.10;6.20;;;;;;;;;;4987906;28;20057;-47
2021/10/15 07:50:28;;;;;;;15.63;6.00;;;;;;;;;;4990358;28;20340;-47
2021/10/15 07:52:53;;;;;;;21.83;6.05;;;;;;;;;;4993873;28;20026;-49
2021/10/15 07:55:18;;;;;;;10.93;5.00;;;;;;;;;;4994656;28;20767;-48
2021/10/15 07:57:44;;;;;;;6.65;5.68;;;;;;;;;;4994266;28;20117;-56
2021/10/15 08:00:10;;;;;;;11.63;4.65;;;;;;;;;;4988297;28;20090;-48
2021/10/15 08:02:35;;;;;;;5.75;3.15;;;;;;;;;;4989046;28;20030;-49
2021/10/15 08:05:01;;;;;;;6.55;2.70;;;;;;;;;;4995478;28;20022;-50
2021/10/15 08:07:26;;;;;;;11.05;1.85;;;;;;;;;;4988635;28;20094;-51
2021/10/15 08:09:51;;;;;;;4.93;1.67;;;;;;;;;;4989929;28;20022;-48
2021/10/15 08:12:17;;;;;;;2.72;1.92;;;;;;;;;;4991960;28;20474;-52
2021/10/15 08:14:42;;;;;;;7.22;2.40;;;;;;;;;;4988168;28;20109;-51
2021/10/15 08:17:07;;;;;;;3.85;2.25;;;;;;;;;;4991286;28;20155;-48
2021/10/15 08:19:33;;;;;;;11.07;2.80;;;;;;;;;;4984713;28;20558;-51
2021/10/15 08:21:58;;;;;;;5.43;2.58;;;;;;;;;;4993044;28;20025;-49
2021/10/15 08:24:24;;;;;;;2.90;1.70;;;;;;;;;;5000083;28;20104;-49
2021/10/15 08:26:50;;;;;;;7.82;6.07;;;;;;;;;;4988956;28;20030;-43
2021/10/15 08:29:16;;;;;;;4.63;2.30;;;;;;;;;;4987044;28;20475;-50
2021/10/15 08:31:41;;;;;;;2.58;1.92;;;;;;;;;;4985297;28;20026;-46
2021/10/15 08:34:10;;;;;;;2.17;1.45;;;;;;;;;;4991108;28;20045;-47
2021/10/15 08:36:38;;;;;;;15.68;1.83;;;;;;;;;;4984263;28;20041;-44
2021/10/15 08:39:04;;;;;;;4.07;2.15;;;;;;;;;;4994641;28;20041;-48
2021/10/15 08:41:29;;;;;;;5.88;4.85;;;;;;;;;;4985528;28;20053;-47
2021/10/15 08:43:57;;;;;;;5.32;2.20;;;;;;;;;;4986556;28;20038;-45
2021/10/15 08:46:22;;;;;;;2.97;1.55;;;;;;;;;;4991520;28;20163;-45
2021/10/15 08:48:48;;;;;;;3.67;1.40;;;;;;;;;;4994789;28;20061;-46
2021/10/15 08:51:14;;;;;;;2.22;1.25;;;;;;;;;;4988632;28;20026;-49
2021/10/15 08:53:49;;;;;;;3.08;2.20;;;;;;;;;;4992054;28;20061;-50
2021/10/15 08:56:18;;;;;;;4.70;1.63;;;;;;;;;;4989359;28;20099;-46
2021/10/15 08:58:48;;;;;;;5.18;1.33;;;;;;;;;;4985880;28;20022;-48
2021/10/15 09:01:13;;;;;;;7.53;2.38;;;;;;;;;;4991760;28;20588;-50
2021/10/15 09:03:39;;;;;;;4.65;1.77;;;;;;;;;;4990988;28;20106;-48
2021/10/15 09:06:07;;;;;;;7.03;2.00;;;;;;;;;;4988982;28;20455;-47
2021/10/15 09:08:49;;;;;;;1.52;1.05;;;;;;;;;;4987428;28;20101;-52
2021/10/15 09:11:32;;;;;;;4.95;2.47;;;;;;;;;;4983111;28;20022;-52
2021/10/15 09:14:07;;;;;;;2.65;1.67;;;;;;;;;;4990114;28;20513;-49
2021/10/15 09:16:52;;;;;;;4.00;1.77;;;;;;;;;;4991645;28;20691;-51
2021/10/15 09:19:24;;;;;;;2.90;1.30;;;;;;;;;;4990325;28;20057;-44
2021/10/15 09:22:08;;;;;;;5.35;1.65;;;;;;;;;;4991429;28;20023;-45
2021/10/15 09:24:36;;;;;;;16.45;7.90;;;;;;;;;;4988619;28;20716;-46
2021/10/15 09:27:10;;;;;;;2.70;1.58;;;;;;;;;;4987556;28;20114;-47
2021/10/15 09:29:42;;;;;;;14.57;2.30;;;;;;;;;;4992731;28;20025;-50
2021/10/15 09:32:08;;;;;;;3.17;1.40;;;;;;;;;;4989718;28;20480;-48
2021/10/15 09:34:37;;;;;;;9.32;2.47;;;;;;;;;;4991257;28;20063;-45
2021/10/15 09:37:09;;;;;;;3.03;2.20;;;;;;;;;;4988116;28;20056;-48
2021/10/15 09:39:35;;;;;;;4.60;3.10;;;;;;;;;;4988101;28;20014;-46
2021/10/15 09:42:01;;;;;;;5.43;2.97;;;;;;;;;;4990309;28;20553;-50
2021/10/15 09:44:31;;;;;;;6.05;2.00;;;;;;;;;;4990245;28;20026;-48
2021/10/15 09:47:13;;;;;;;3.47;2.65;;;;;;;;;;4990396;28;20034;-50
2021/10/15 09:49:56;;;;;;;4.07;3.00;;;;;;;;;;4993071;28;20056;-51
2021/10/15 09:52:22;;;;;;;4.07;2.00;;;;;;;;;;4990577;28;20023;-48
2021/10/15 09:54:57;;;;;;;2.90;1.50;;;;;;;;;;4992452;28;20052;-49
2021/10/15 09:57:42;;;;;;;9.10;3.45;;;;;;;;;;4993753;28;20022;-51
2021/10/15 10:00:12;;;;;;;4.97;2.17;;;;;;;;;;4993464;28;20019;-48
2021/10/15 10:02:37;;;;;;;3.60;2.25;;;;;;;;;;4990492;28;20030;-50
2021/10/15 10:05:06;;;;;;;3.90;1.70;;;;;;;;;;4984553;28;20121;-50
2021/10/15 10:07:35;;;;;;;7.35;1.75;;;;;;;;;;4986152;28;20026;-52
2021/10/15 10:10:01;;;;;;;4.35;2.50;;;;;;;;;;4990409;28;20563;-49
2021/10/15 10:12:27;;;;;;;4.60;1.98;;;;;;;;;;4987232;28;20113;-51
2021/10/15 10:14:52;;;;;;;6.38;2.35;;;;;;;;;;4990727;28;20026;-49
2021/10/15 10:17:21;;;;;;;5.28;3.25;;;;;;;;;;4986034;28;20096;-47
2021/10/15 10:19:47;;;;;;;8.65;4.30;;;;;;;;;;4986953;28;20049;-45
2021/10/15 10:22:13;;;;;;;10.80;6.63;;;;;;;;;;4988897;28;20053;-43
2021/10/15 10:24:43;;;;;;;17.30;8.50;;;;;;;;;;4987810;28;20117;-46
2021/10/15 10:27:08;;;;;;;12.05;6.55;;;;;;;;;;4984269;28;20088;-48
2021/10/15 10:29:42;;;;;;;3.70;2.03;;;;;;;;;;4987375;28;20041;-46
2021/10/15 10:32:15;;;;;;;7.28;2.75;;;;;;;;;;4990527;28;20021;-47
2021/10/15 10:34:41;;;;;;;3.75;2.20;;;;;;;;;;4989673;28;20027;-44
2021/10/15 10:37:07;;;;;;;4.40;1.75;;;;;;;;;;4996943;28;20424;-46
2021/10/15 10:39:35;;;;;;;11.02;1.95;;;;;;;;;;4990784;28;20093;-52
2021/10/15 10:42:18;;;;;;;6.43;3.03;;;;;;;;;;4986200;28;20030;-49
2021/10/15 10:44:49;;;;;;;4.88;4.07;;;;;;;;;;4987591;28;20046;-46
2021/10/15 10:47:21;;;;;;;16.05;3.35;;;;;;;;;;4987944;28;20026;-48
2021/10/15 10:50:02;;;;;;;2.97;2.38;;;;;;;;;;4990924;28;20030;-51
2021/10/15 10:52:27;;;;;;;8.65;3.03;;;;;;;;;;4987678;28;20097;-48
2021/10/15 10:54:52;;;;;;;3.42;1.98;;;;;;;;;;4984433;28;20107;-46
2021/10/15 10:57:22;;;;;;;3.97;1.95;;;;;;;;;;4987565;28;20076;-43
2021/10/15 10:59:51;;;;;;;6.85;2.28;;;;;;;;;;4987459;28;20015;-46
2021/10/15 11:02:19;;;;;;;3.10;1.98;;;;;;;;;;4987351;28;20026;-45
2021/10/15 11:04:44;;;;;;;13.05;3.17;;;;;;;;;;4987793;28;20029;-46
2021/10/15 11:07:21;;;;;;;3.08;1.63;;;;;;;;;;4991401;28;20031;-49
2021/10/15 11:09:50;;;;;;;9.85;3.78;;;;;;;;;;4985067;28;20111;-45
2021/10/15 11:12:15;;;;;;;10.07;3.85;;;;;;;;;;4984474;28;20104;-45
2021/10/15 11:14:56;;;;;;;5.82;3.35;;;;;;;;;;4984260;28;20047;-47
2021/10/15 11:17:32;;;;;;;3.85;2.28;;;;;;;;;;4989616;28;20430;-45
2021/10/15 11:20:07;;;;;;;5.93;2.40;;;;;;;;;;4986847;28;20114;-49
2021/10/15 11:22:32;;;;;;;14.20;2.38;;;;;;;;;;4985916;28;20031;-44
2021/10/15 11:24:58;;;;;;;13.90;2.67;;;;;;;;;;4987664;28;20037;-45
2021/10/15 11:27:23;;;;;;;3.92;2.10;;;;;;;;;;4989142;28;20027;-46
2021/10/15 11:29:50;;;;;;;2.88;1.70;;;;;;;;;;4989020;28;20034;-42
2021/10/15 11:32:27;;;;;;;6.65;2.78;;;;;;;;;;4990429;28;20034;-43
2021/10/15 11:35:22;;;;;;;5.65;2.05;;;;;;;;;;4984769;28;20026;-45
2021/10/15 11:37:53;;;;;;;11.82;3.33;;;;;;;;;;4999428;28;20103;-45
2021/10/15 11:40:21;;;;;;;13.52;3.58;;;;;;;;;;4991194;28;20022;-46
2021/10/15 11:42:47;;;;;;;5.97;2.30;;;;;;;;;;4988173;28;20018;-44
2021/10/15 11:45:26;;;;;;;5.85;2.47;;;;;;;;;;4989560;28;20764;-47
2021/10/15 11:48:08;;;;;;;3.53;2.10;;;;;;;;;;4993004;28;20467;-49
2021/10/15 11:50:41;;;;;;;9.00;2.05;;;;;;;;;;4984602;28;20043;-51
2021/10/15 11:53:07;;;;;;;2.88;1.25;;;;;;;;;;4989735;28;20552;-49
2021/10/15 11:55:36;;;;;;;7.00;2.63;;;;;;;;;;4989785;28;20034;-51
2021/10/15 11:58:14;;;;;;;15.77;10.13;;;;;;;;;;4988270;28;20023;-48
2021/10/15 12:00:53;;;;;;;4.97;2.00;;;;;;;;;;4986799;28;20097;-48
2021/10/15 12:03:26;;;;;;;4.00;2.47;;;;;;;;;;4987003;28;20049;-49
2021/10/15 12:05:51;;;;;;;3.13;2.22;;;;;;;;;;4988961;28;20109;-51
2021/10/15 12:08:16;;;;;;;3.55;2.42;;;;;;;;;;4988315;28;20101;-51
2021/10/15 12:10:42;;;;;;;2.47;1.48;;;;;;;;;;4988791;28;20459;-50
2021/10/15 12:13:07;;;;;;;2.30;1.80;;;;;;;;;;4984975;28;20111;-52
2021/10/15 12:15:33;;;;;;;12.82;3.00;;;;;;;;;;4988706;28;20026;-52
2021/10/15 12:18:08;;;;;;;5.00;2.92;;;;;;;;;;4985508;28;20031;-52
2021/10/15 12:20:33;;;;;;;2.90;2.00;;;;;;;;;;4989771;28;20549;-47
2021/10/15 12:23:05;;;;;;;2.42;1.23;;;;;;;;;;4991632;28;20054;-49
2021/10/15 12:25:30;;;;;;;1.95;1.35;;;;;;;;;;4990499;28;20057;-54
2021/10/15 12:27:55;;;;;;;9.68;1.92;;;;;;;;;;4987450;28;20065;-55
2021/10/15 12:30:24;;;;;;;12.98;2.15;;;;;;;;;;4987005;28;20026;-50
2021/10/15 12:32:50;;;;;;;3.05;2.05;;;;;;;;;;4984132;28;20026;-50
2021/10/15 12:35:16;;;;;;;7.97;2.35;;;;;;;;;;4985317;28;20059;-48
2021/10/15 12:37:45;;;;;;;4.13;2.05;;;;;;;;;;4988726;28;20026;-49
2021/10/15 12:40:14;;;;;;;7.20;3.50;;;;;;;;;;4984531;28;20491;-47
2021/10/15 12:42:39;;;;;;;12.75;2.60;;;;;;;;;;4986043;28;20014;-52
2021/10/15 12:45:05;;;;;;;8.55;2.85;;;;;;;;;;4984186;28;20182;-45
2021/10/15 12:47:31;;;;;;;7.15;3.70;;;;;;;;;;4991467;28;20040;-49
2021/10/15 12:50:00;;;;;;;1.83;1.38;;;;;;;;;;4989690;28;20054;-53
2021/10/15 12:52:30;;;;;;;7.13;2.10;;;;;;;;;;4987042;28;20026;-53
2021/10/15 12:54:55;;;;;;;2.38;1.17;;;;;;;;;;4988539;28;20586;-49
2021/10/15 12:57:21;;;;;;;3.60;2.05;;;;;;;;;;4988107;28;20022;-48
2021/10/15 13:00:06;;;;;;;2.70;1.55;;;;;;;;;;4991394;28;20103;-47
2021/10/15 13:02:35;;;;;;;3.92;1.90;;;;;;;;;;4986645;28;20286;-49
2021/10/15 13:05:01;;;;;;;2.10;1.17;;;;;;;;;;4988624;28;20835;-46
2021/10/15 13:07:27;;;;;;;5.78;1.65;;;;;;;;;;4990480;28;20034;-52
2021/10/15 13:09:53;;;;;;;1.92;1.10;;;;;;;;;;4988427;28;20046;-55
2021/10/15 13:12:18;;;;;;;1.45;1.08;;;;;;;;;;4989335;28;20054;-54
2021/10/15 13:14:44;;;;;;;2.75;0.88;;;;;;;;;;4987419;28;20065;-53
2021/10/15 13:17:11;;;;;;;1.88;1.05;;;;;;;;;;4987326;28;20387;-56
2021/10/15 13:19:36;;;;;;;4.70;2.15;;;;;;;;;;4987826;28;20026;-58
2021/10/15 13:22:01;;;;;;;2.97;1.88;;;;;;;;;;4987698;28;20718;-53
2021/10/15 13:24:27;;;;;;;4.47;1.00;;;;;;;;;;4985823;28;20120;-56
2021/10/15 13:26:52;;;;;;;16.17;3.40;;;;;;;;;;4986635;28;20081;-56
2021/10/15 13:29:17;;;;;;;1.50;0.98;;;;;;;;;;4985806;28;20108;-52
2021/10/15 13:31:43;;;;;;;2.30;1.33;;;;;;;;;;4986683;28;20410;-54
2021/10/15 13:34:08;;;;;;;5.63;2.85;;;;;;;;;;4990422;28;20033;-55
2021/10/15 13:36:37;;;;;;;3.25;1.83;;;;;;;;;;4983396;28;20088;-54
2021/10/15 13:39:04;;;;;;;3.67;1.33;;;;;;;;;;4993035;28;20247;-55
2021/10/15 13:41:50;;;;;;;2.60;1.48;;;;;;;;;;4987201;28;20045;-54
2021/10/15 13:49:53;;;;;;;2.55;1.80;;;;;;;;;;5039882;28;20136;-55
2021/10/15 13:52:20;;;;;;;3.90;1.00;;;;;;;;;;4994943;28;20049;-54
2021/10/15 13:54:46;;;;;;;9.27;2.05;;;;;;;;;;4991572;28;20023;-54
2021/10/15 13:57:14;;;;;;;9.40;2.83;;;;;;;;;;4987785;28;20052;-52
2021/10/15 13:59:46;;;;;;;2.22;1.52;;;;;;;;;;4981742;28;20103;-56
2021/10/15 14:02:13;;;;;;;3.53;1.80;;;;;;;;;;4985297;28;20061;-54
2021/10/15 14:04:47;;;;;;;12.70;2.42;;;;;;;;;;4985822;28;20080;-54
2021/10/15 14:07:15;;;;;;;2.03;1.15;;;;;;;;;;4993499;28;20023;-53
2021/10/15 14:09:40;;;;;;;6.07;2.08;;;;;;;;;;4985013;28;20030;-56
2021/10/15 14:12:06;;;;;;;4.25;2.10;;;;;;;;;;4987253;28;20454;-52
2021/10/15 14:14:35;;;;;;;1.98;1.13;;;;;;;;;;4978165;28;20034;-54
2021/10/15 14:17:00;;;;;;;1.58;0.65;;;;;;;;;;4989185;28;20410;-52
2021/10/15 14:19:25;;;;;;;4.57;1.90;;;;;;;;;;4983769;28;20026;-54
2021/10/15 14:21:51;;;;;;;4.47;2.25;;;;;;;;;;4987847;28;20618;-51
2021/10/15 14:24:16;;;;;;;2.00;1.15;;;;;;;;;;4989391;28;20375;-54
2021/10/15 14:26:41;;;;;;;3.17;1.35;;;;;;;;;;4989711;28;20436;-54
2021/10/15 14:29:07;;;;;;;2.80;1.65;;;;;;;;;;4987388;28;20440;-54
2021/10/15 14:31:32;;;;;;;3.05;1.13;;;;;;;;;;4983351;28;20030;-53
2021/10/15 14:33:58;;;;;;;1.10;0.80;;;;;;;;;;4991468;28;20493;-52
2021/10/15 14:36:23;;;;;;;3.72;2.25;;;;;;;;;;4985437;28;20510;-52
2021/10/15 14:38:49;;;;;;;3.90;2.15;;;;;;;;;;4986287;28;20079;-51
2021/10/15 14:41:14;;;;;;;4.97;3.45;;;;;;;;;;4988669;28;20048;-53
2021/10/15 14:43:39;;;;;;;3.03;2.40;;;;;;;;;;4988519;28;20088;-43
2021/10/15 14:46:05;;;;;;;5.53;2.20;;;;;;;;;;4989192;28;20784;-49
2021/10/15 14:48:30;;;;;;;3.85;2.33;;;;;;;;;;4985213;28;20026;-43
2021/10/15 14:50:55;;;;;;;3.50;1.90;;;;;;;;;;4985969;28;20487;-47
2021/10/15 14:53:21;;;;;;;7.35;2.58;;;;;;;;;;4987410;28;20034;-45
2021/10/15 14:55:46;;;;;;;3.55;2.15;;;;;;;;;;4983794;28;20014;-44
2021/10/15 14:58:11;;;;;;;3.85;1.52;;;;;;;;;;4980305;28;20023;-49
2021/10/15 15:00:37;;;;;;;3.88;1.75;;;;;;;;;;4986568;28;20019;-45
2021/10/15 15:03:03;;;;;;;2.63;1.63;;;;;;;;;;4984552;28;20026;-47
2021/10/15 15:05:28;;;;;;;1.30;0.75;;;;;;;;;;4989352;28;20021;-45